• Join FlightAware (Why Join?)
  • Login
  • US Flag 
03:25AM EDT


 

Airport Tracker/Info


-or-


 

Live Flight TrackerFlight Track Log ✈ UCA4775 ✈ 2013年 08月 25日 ✈ KBDL - KEWR

Flight Track Log - Related Links

Times and Time Zones

All times are in EDT time to prevent confusion due to time zone crossing. See the UCA4775 flight status page for this flight to view local times or setup timezone preferences in your user account.

Time Position Orientation Groundspeed Altitude Reporting Facility
EDT Latitude Longitude Course Direction KTS MPH feet Rate Location/Type
08:39PM 41.9458 -72.7025 160° South 147 169 1,100  Level Boston Center
08:40PM 41.9333 -72.7247 233° Southwest 122 140 2,400 1,860 Climbing Boston Center
08:41PM 41.8956 -72.7469 204° Southwest 148 170 4,200 1,680 Climbing Boston Center
08:42PM 41.8519 -72.7689 201° Southwest 170 196 5,800 840 Climbing Boston Center
08:43PM 41.7956 -72.7992 202° Southwest 248 285 6,000 60 Climbing Boston Center
08:44PM 41.7536 -72.8686 231° Southwest 245 282 6,000  Level Boston Center
08:45PM 41.6671 -72.5502 160° South  Level FlightAware Approximate
08:45PM 41.7117 -72.9433 233° Southwest 250 288 6,000  Level Boston Center
08:46PM 41.6592 -73.0153 226° Southwest 244 281 6,000  Level Boston Center
08:48PM 41.5833 -73.1167 225° Southwest 239 275 6,000  Level New York TRACON
08:49PM 41.5500 -73.1833 236° Southwest 243 280 6,000  Level New York TRACON
08:50PM 41.5000 -73.2500 225° Southwest 240 276 6,000  Level New York TRACON
08:51PM 41.4500 -73.3333 231° Southwest 242 278 6,000  Level New York TRACON
08:52PM 41.4000 -73.4000 225° Southwest 231 266 6,000  Level New York TRACON
08:53PM 41.3667 -73.4667 236° Southwest 230 265 6,000  Level New York TRACON
08:54PM 41.3167 -73.5167 217° Southwest 232 267 6,000  Level New York TRACON
08:55PM 41.2833 -73.5833 236° Southwest 229 264 6,000 -180 Level New York TRACON
08:56PM 41.2667 -73.6667 255° West 229 264 5,700 -540 Descending New York TRACON
08:57PM 41.2667 -73.7500 270° West 243 280 5,000 -360 Descending New York TRACON
08:58PM 41.2500 -73.8500 258° West 232 267 5,000  Level New York TRACON
08:59PM 41.2500 -73.9333 270° West 228 262 5,000  Level New York TRACON
09:00PM 41.2333 -74.0167 255° West 229 264 5,000  Level New York TRACON
09:01PM 41.2333 -74.0833 270° West 228 262 5,000  Level New York TRACON
09:02PM 41.2000 -74.1667 242° Southwest 229 264 5,000  Level New York TRACON
09:03PM 41.1500 -74.2167 217° Southwest 241 277 5,000  Level New York TRACON
09:04PM 41.1000 -74.2333 194° South 241 277 5,000  Level New York TRACON
09:05PM 41.0333 -74.2500 191° South 236 272 5,000  Level New York TRACON
09:06PM 40.9667 -74.2167 159° South 246 283 5,000 -420 Level New York TRACON
09:07PM 40.9500 -74.1500 108° East 198 228 4,200 -900 Descending New York TRACON
09:08PM 40.9333 -74.0833 108° East 204 235 3,300 -600 Descending New York TRACON
09:09PM 40.8833 -74.0500 153° Southeast 178 205 3,000 -240 Descending New York TRACON
09:10PM 40.8333 -74.0667 194° South 166 191 2,900 -480 Descending New York TRACON
09:11PM 40.8000 -74.1000 217° Southwest 162 186 2,100 -840 Descending New York TRACON
09:12PM 40.7667 -74.1167 201° Southwest 147 169 1,300 -780 Descending New York TRACON
09:13PM 40.7333 -74.1500 217° Southwest 119 137 600 -720 Descending New York TRACON
09:15PM 40.6925 -74.1687 199° South  Level Estimated
09:22PM 40.6925 -74.1687 199° South  Level Estimated
09:23PM 40.6925 -74.1687 199° South  Level Estimated